Time;durP1;ratioP1;P1;durP2;ratioP2;P2;SDS_P1;SDS_P2;PMS_P1;PMS_P2;Temp;Humidity;BMP_temperature;BMP_pressure;BME280_temperature;BME280_humidity;BME280_pressure;Samples;Min_cycle;Max_cycle;Signal;HPM_P1;HPM_P2
2024/03/14 00:00:42;;;;;;;15.75;6.07;;;;;;;7.88;100.00;98958.53;5007238;28;20110;-92
2024/03/14 00:03:09;;;;;;;13.35;6.40;;;;;;;7.78;100.00;98937.44;5015497;28;20060;-91
2024/03/14 00:05:35;;;;;;;11.63;7.20;;;;;;;7.14;100.00;98830.69;4996679;28;20037;-92
2024/03/14 00:08:01;;;;;;;11.18;6.45;;;;;;;7.45;100.00;98896.44;4998451;28;20048;-91
2024/03/14 00:10:27;;;;;;;11.88;6.28;;;;;;;7.49;100.00;98913.16;5009407;28;20080;-92
2024/03/14 00:12:53;;;;;;;12.57;6.20;;;;;;;7.74;100.00;98959.59;5008737;28;20127;-91
2024/03/14 00:15:20;;;;;;;12.63;6.95;;;;;;;7.61;100.00;98942.09;5005616;28;20045;-92
2024/03/14 00:17:46;;;;;;;11.23;6.45;;;;;;;7.76;100.00;98962.19;5007450;28;20045;-92
2024/03/14 00:20:12;;;;;;;8.85;5.57;;;;;;;7.73;100.00;98959.59;4995740;28;20047;-92
2024/03/14 00:22:38;;;;;;;9.88;6.47;;;;;;;7.67;100.00;98963.19;5009215;28;20038;-92
2024/03/14 00:25:05;;;;;;;14.23;6.80;;;;;;;7.59;100.00;98958.00;5004631;28;20037;-91
2024/03/14 00:27:32;;;;;;;11.38;6.60;;;;;;;7.66;100.00;98948.22;5009341;28;20061;-92
2024/03/14 00:29:58;;;;;;;12.65;6.25;;;;;;;7.45;100.00;98928.19;5008474;28;20049;-91
2024/03/14 00:32:24;;;;;;;10.70;6.05;;;;;;;6.91;100.00;98824.78;5007763;28;20029;-91
2024/03/14 00:34:50;;;;;;;12.20;6.47;;;;;;;6.72;100.00;98798.56;5010494;28;20121;-92
2024/03/14 00:37:16;;;;;;;9.90;5.90;;;;;;;6.94;100.00;98845.88;5008096;28;20033;-91
2024/03/14 00:39:42;;;;;;;11.45;5.78;;;;;;;6.84;100.00;98818.69;5006887;28;20049;-92
2024/03/14 00:42:09;;;;;;;10.95;6.03;;;;;;;6.82;100.00;98816.97;5007002;28;20029;-92
2024/03/14 00:44:35;;;;;;;8.43;5.05;;;;;;;7.55;100.00;98956.28;5026114;28;20036;-92
2024/03/14 00:47:01;;;;;;;9.88;6.18;;;;;;;7.23;100.00;98902.88;5007849;28;20034;-92
2024/03/14 00:49:27;;;;;;;10.15;5.35;;;;;;;6.65;100.00;98803.94;4995148;28;20041;-91
2024/03/14 00:51:54;;;;;;;9.32;5.07;;;;;;;7.38;100.00;98945.91;5013078;28;20713;-91
2024/03/14 00:54:20;;;;;;;9.80;5.40;;;;;;;6.95;100.00;98884.66;5000991;28;20034;-92
2024/03/14 00:56:48;;;;;;;9.32;6.25;;;;;;;6.62;100.00;98839.19;4993234;28;20033;-92
2024/03/14 00:59:14;;;;;;;10.25;6.15;;;;;;;7.03;100.00;98916.31;5007983;28;20082;-91
2024/03/14 01:01:44;;;;;;;10.32;5.70;;;;;;;6.35;100.00;98813.91;5016432;28;20040;-91
2024/03/14 01:04:11;;;;;;;10.68;5.35;;;;;;;6.43;100.00;98808.56;5008392;28;20920;-91
2024/03/14 01:06:38;;;;;;;11.70;5.47;;;;;;;7.21;100.00;98931.97;5010117;28;20087;-92
2024/03/14 01:09:06;;;;;;;9.57;5.28;;;;;;;7.01;100.00;98905.75;5009625;28;20034;-91
2024/03/14 01:11:33;;;;;;;10.13;5.47;;;;;;;6.32;100.00;98779.63;4997810;28;20412;-92
2024/03/14 01:13:59;;;;;;;10.75;5.47;;;;;;;6.60;100.00;98845.41;5026286;28;20061;-92
2024/03/14 01:16:26;;;;;;;10.95;5.07;;;;;;;6.61;100.00;98845.34;5026903;28;20049;-92
2024/03/14 01:18:52;;;;;;;8.18;5.53;;;;;;;7.20;100.00;98951.41;4995702;28;20033;-92
2024/03/14 01:21:20;;;;;;;10.65;5.68;;;;;;;7.10;100.00;98941.81;5010453;28;20047;-91
2024/03/14 01:23:48;;;;;;;13.35;5.82;;;;;;;7.07;100.00;98934.78;5001612;28;20037;-92
2024/03/14 01:26:14;;;;;;;9.45;5.10;;;;;;;6.49;100.00;98835.78;5001145;28;20041;-91
2024/03/14 01:28:40;;;;;;;6.80;4.95;;;;;;;6.36;100.00;98821.81;5026027;28;20670;-91
2024/03/14 01:31:06;;;;;;;14.65;5.13;;;;;;;6.34;100.00;98823.59;5024657;28;20065;-91
2024/03/14 01:33:32;;;;;;;10.60;5.22;;;;;;;6.92;100.00;98914.66;5010939;28;20033;-91
2024/03/14 01:36:00;;;;;;;11.20;5.93;;;;;;;6.93;100.00;98928.75;5001341;28;20043;-91
2024/03/14 01:38:26;;;;;;;11.88;5.80;;;;;;;6.87;100.00;98913.81;5002267;28;20045;-91
2024/03/14 01:40:53;;;;;;;11.60;4.95;;;;;;;6.89;100.00;98927.03;5017672;28;20037;-93
2024/03/14 01:43:19;;;;;;;8.30;4.93;;;;;;;6.74;100.00;98935.97;5011710;28;20029;-91
2024/03/14 01:45:47;;;;;;;10.18;5.30;;;;;;;6.58;100.00;98932.59;5009169;28;20128;-91
2024/03/14 01:48:13;;;;;;;11.13;5.50;;;;;;;6.55;100.00;98922.06;5027721;28;20098;-91
2024/03/14 01:50:39;;;;;;;9.27;5.15;;;;;;;6.03;100.00;98833.56;5016006;28;20397;-90
2024/03/14 01:53:05;;;;;;;9.80;5.18;;;;;;;6.69;100.00;98922.78;5024375;28;20060;-91
2024/03/14 01:55:31;;;;;;;12.15;5.60;;;;;;;5.66;100.00;98764.28;5001415;28;20056;-91
2024/03/14 01:57:58;;;;;;;10.68;5.22;;;;;;;6.65;100.00;98931.63;5016631;28;20041;-91
2024/03/14 02:00:24;;;;;;;8.60;4.05;;;;;;;6.67;100.00;98929.84;5029389;28;20400;-91
2024/03/14 02:02:50;;;;;;;7.38;4.78;;;;;;;6.43;100.00;98891.31;5015718;28;20404;-90
2024/03/14 02:05:18;;;;;;;8.88;4.88;;;;;;;6.66;100.00;98924.56;4982926;28;20040;-91
2024/03/14 02:07:45;;;;;;;7.85;5.10;;;;;;;6.69;100.00;98924.56;5010857;28;20064;-92
2024/03/14 02:10:13;;;;;;;8.45;5.20;;;;;;;6.60;100.00;98914.97;5033491;28;20080;-89
2024/03/14 02:12:39;;;;;;;10.18;5.10;;;;;;;6.68;100.00;98921.06;5046124;28;20028;-89
2024/03/14 02:15:06;;;;;;;10.32;4.70;;;;;;;6.44;100.00;98877.25;5027146;28;20053;-90
2024/03/14 02:17:32;;;;;;;7.53;4.38;;;;;;;6.43;100.00;98891.31;5023552;28;20067;-91
2024/03/14 02:19:58;;;;;;;10.95;5.50;;;;;;;6.47;100.00;98898.34;4994314;28;20037;-91
2024/03/14 02:22:24;;;;;;;10.52;6.47;;;;;;;6.60;100.00;98927.31;5020517;28;20053;-91
2024/03/14 02:24:51;;;;;;;12.00;5.55;;;;;;;5.94;100.00;98812.47;5033983;28;20108;-91
2024/03/14 02:27:17;;;;;;;9.43;5.40;;;;;;;5.85;100.00;98810.75;5004398;28;20057;-91
2024/03/14 02:29:43;;;;;;;11.70;5.72;;;;;;;6.53;100.00;98931.75;5047152;28;20049;-90
2024/03/14 02:32:09;;;;;;;11.02;4.72;;;;;;;5.87;100.00;98839.78;5028467;28;20085;-90
2024/03/14 02:34:35;;;;;;;7.75;5.15;;;;;;;5.85;100.00;98836.28;5007750;28;20051;-91
2024/03/14 02:37:02;;;;;;;10.70;5.63;;;;;;;6.46;100.00;98927.41;5012558;28;20056;-90
2024/03/14 02:39:29;;;;;;;9.77;5.20;;;;;;;5.80;100.00;98812.56;5006442;28;20047;-91
2024/03/14 02:41:55;;;;;;;9.23;5.10;;;;;;;5.91;100.00;98842.41;4989596;28;20034;-91
2024/03/14 02:44:22;;;;;;;9.68;5.35;;;;;;;5.79;100.00;98824.03;4990186;28;20041;-91
2024/03/14 02:46:50;;;;;;;11.88;5.35;;;;;;;6.37;100.00;98921.28;4988098;28;20042;-92
2024/03/14 02:49:18;;;;;;;8.80;5.07;;;;;;;6.41;100.00;98924.78;5008552;28;20025;-91
2024/03/14 02:51:45;;;;;;;10.73;5.38;;;;;;;5.93;100.00;98847.69;4990534;28;20042;-92
2024/03/14 02:54:11;;;;;;;10.00;5.03;;;;;;;5.61;100.00;98805.69;4989877;28;20038;-91
2024/03/14 02:56:37;;;;;;;10.27;5.22;;;;;;;5.90;100.00;98826.59;5005060;28;20366;-92
2024/03/14 02:59:03;;;;;;;10.88;5.68;;;;;;;5.84;100.00;98863.59;5004943;28;20037;-91
2024/03/14 03:01:30;;;;;;;9.48;5.55;;;;;;;6.34;100.00;98926.59;5003628;28;20041;-91
2024/03/14 03:03:57;;;;;;;11.70;6.18;;;;;;;6.32;100.00;98931.03;5005824;28;20093;-91
2024/03/14 03:06:26;;;;;;;11.52;6.03;;;;;;;6.19;100.00;98925.84;4991657;28;20045;-91
2024/03/14 03:08:52;;;;;;;10.18;5.78;;;;;;;6.28;100.00;98926.66;5008973;28;20133;-90
2024/03/14 03:11:18;;;;;;;10.45;5.80;;;;;;;6.30;100.00;98931.94;5008687;28;20042;-91
2024/03/14 03:13:44;;;;;;;8.40;5.40;;;;;;;6.19;100.00;98912.66;4988496;28;20065;-91
2024/03/14 03:16:11;;;;;;;8.88;5.13;;;;;;;6.23;100.00;98922.31;4990385;28;20044;-91
2024/03/14 03:18:38;;;;;;;9.38;5.55;;;;;;;6.23;100.00;98927.59;4992724;28;20061;-91
2024/03/14 03:21:05;;;;;;;8.35;4.75;;;;;;;6.23;100.00;98935.50;4991718;28;20143;-91
2024/03/14 03:23:30;;;;;;;8.70;4.53;;;;;;;6.16;100.00;98932.91;5000572;28;20037;-91
2024/03/14 03:25:56;;;;;;;9.63;5.28;;;;;;;6.15;100.00;98925.84;4991534;28;20044;-91
2024/03/14 03:28:23;;;;;;;9.43;5.38;;;;;;;6.07;100.00;98938.25;5009308;28;20404;-90
2024/03/14 03:30:49;;;;;;;6.80;4.65;;;;;;;5.49;100.00;98847.06;4988770;28;20137;-90
2024/03/14 03:33:17;;;;;;;9.02;5.22;;;;;;;6.10;100.00;98932.06;4992866;28;20052;-91
2024/03/14 03:35:43;;;;;;;10.38;5.38;;;;;;;6.07;100.00;98951.47;5008980;28;20049;-90
2024/03/14 03:38:09;;;;;;;9.35;4.70;;;;;;;6.07;100.00;98934.72;4992212;28;20065;-91
2024/03/14 03:40:36;;;;;;;9.32;4.90;;;;;;;5.28;100.00;98826.09;5007250;28;20065;-91
2024/03/14 03:43:03;;;;;;;8.05;4.40;;;;;;;6.05;100.00;98939.13;5007968;28;20042;-91
2024/03/14 03:45:29;;;;;;;10.50;4.90;;;;;;;5.99;100.00;98920.72;4989786;28;20033;-92
2024/03/14 03:47:56;;;;;;;9.57;5.57;;;;;;;5.46;100.00;98860.25;4992477;28;20037;-91
2024/03/14 03:50:23;;;;;;;8.63;4.53;;;;;;;5.49;100.00;98860.25;5007104;28;20121;-91
2024/03/14 03:52:50;;;;;;;8.00;5.28;;;;;;;5.37;100.00;98844.50;4992968;28;20104;-89
2024/03/14 03:55:16;;;;;;;11.75;5.13;;;;;;;5.33;100.00;98842.75;5008931;28;20065;-90
2024/03/14 03:57:43;;;;;;;7.20;4.75;;;;;;;5.94;100.00;98934.81;5007687;28;20400;-92
2024/03/14 04:00:33;;;;;;;11.10;5.28;;;;;;;5.95;100.00;98930.41;4989959;28;20034;-91
2024/03/14 04:02:55;;;;;;;9.02;4.90;;;;;;;5.12;100.00;98825.28;4984786;28;20038;-91
2024/03/14 04:05:21;;;;;;;9.05;5.30;;;;;;;5.65;100.00;98941.97;4991381;28;20038;-91
2024/03/14 04:07:49;;;;;;;8.90;4.78;;;;;;;5.78;100.00;98948.94;4992342;28;20045;-91
2024/03/14 04:10:15;;;;;;;10.65;5.38;;;;;;;5.07;100.00;98827.91;5006905;28;20040;-92
2024/03/14 04:12:41;;;;;;;7.90;4.63;;;;;;;5.56;100.00;98914.72;5008994;28;20030;-92
2024/03/14 04:15:09;;;;;;;8.45;4.60;;;;;;;5.27;100.00;98861.22;4989740;28;20048;-92
2024/03/14 04:17:35;;;;;;;8.60;5.10;;;;;;;5.05;100.00;98829.72;4992623;28;20096;-92
2024/03/14 04:20:01;;;;;;;7.63;4.22;;;;;;;5.77;100.00;98957.75;5007292;28;20504;-91
2024/03/14 04:22:28;;;;;;;9.80;5.25;;;;;;;5.70;100.00;98953.34;4989022;28;20029;-91
2024/03/14 04:24:55;;;;;;;9.40;5.50;;;;;;;5.26;100.00;98883.22;4989900;28;20096;-91
2024/03/14 04:27:21;;;;;;;11.63;5.70;;;;;;;5.66;100.00;98955.16;5007203;28;20378;-91
2024/03/14 04:29:48;;;;;;;12.15;5.10;;;;;;;5.40;100.00;98920.97;4990891;28;21836;-90
2024/03/14 04:32:14;;;;;;;9.75;5.43;;;;;;;4.72;100.00;98839.44;4990235;28;20052;-91
2024/03/14 04:34:40;;;;;;;11.50;5.78;;;;;;;5.53;100.00;98975.44;4990371;28;20037;-91
2024/03/14 04:37:06;;;;;;;10.70;6.20;;;;;;;4.63;100.00;98815.78;5009176;28;20034;-92
2024/03/14 04:39:33;;;;;;;13.45;6.50;;;;;;;5.61;100.00;98974.50;4989336;28;20049;-91
2024/03/14 04:41:59;;;;;;;9.27;5.95;;;;;;;4.48;100.00;98781.59;4990358;28;20034;-91
2024/03/14 04:44:25;;;;;;;11.43;6.05;;;;;;;5.64;100.00;98978.03;4989273;28;20034;-90
2024/03/14 04:46:54;;;;;;;9.80;4.90;;;;;;;5.50;100.00;98975.41;5003912;28;20061;-90
2024/03/14 04:49:21;;;;;;;9.15;4.82;;;;;;;4.97;100.00;98894.75;4991161;28;20038;-90
2024/03/14 04:51:47;;;;;;;8.85;5.28;;;;;;;5.50;100.00;98974.53;5006123;28;20041;-90
2024/03/14 04:54:14;;;;;;;8.43;5.20;;;;;;;5.15;100.00;98918.41;5005534;28;20033;-91
2024/03/14 04:56:40;;;;;;;9.38;5.57;;;;;;;5.51;100.00;98973.69;4989991;28;20083;-92
2024/03/14 04:59:09;;;;;;;9.63;5.13;;;;;;;4.93;100.00;98872.78;5005430;28;20029;-92
2024/03/14 05:01:35;;;;;;;9.73;5.43;;;;;;;5.54;100.00;98979.81;4990857;28;20082;-91
2024/03/14 05:04:03;;;;;;;9.70;5.47;;;;;;;5.51;100.00;98992.16;4990838;28;20064;-90
2024/03/14 05:06:29;;;;;;;10.77;4.57;;;;;;;4.92;100.00;98872.78;4991711;28;20038;-90
2024/03/14 05:08:55;;;;;;;9.07;4.15;;;;;;;5.52;100.00;98997.38;4991718;28;20045;-90
2024/03/14 05:11:22;;;;;;;9.65;5.03;;;;;;;5.34;100.00;98956.13;5005203;28;20042;-90
2024/03/14 05:13:50;;;;;;;9.40;5.57;;;;;;;4.93;100.00;98885.97;5007201;28;20038;-90
2024/03/14 05:16:16;;;;;;;11.30;5.82;;;;;;;5.06;100.00;98909.66;5008182;28;20053;-92
2024/03/14 05:18:42;;;;;;;10.05;4.95;;;;;;;4.85;100.00;98886.84;4989052;28;20060;-91
2024/03/14 05:21:10;;;;;;;9.85;4.70;;;;;;;5.60;100.00;99009.69;5003742;28;20029;-92
2024/03/14 05:23:36;;;;;;;7.88;4.22;;;;;;;4.99;100.00;98907.88;4986033;28;20030;-91
2024/03/14 05:26:02;;;;;;;8.35;5.15;;;;;;;5.23;100.00;98947.38;4988781;28;20073;-90
2024/03/14 05:28:28;;;;;;;8.43;4.82;;;;;;;4.93;100.00;98895.63;4996559;28;20489;-89
2024/03/14 05:30:55;;;;;;;9.63;4.95;;;;;;;5.51;100.00;99005.34;4998589;28;20053;-91
2024/03/14 05:33:21;;;;;;;9.70;4.93;;;;;;;5.51;100.00;99005.34;5017310;28;20038;-91
2024/03/14 05:35:49;;;;;;;8.90;5.07;;;;;;;5.27;100.00;98971.97;5017309;28;20045;-91
2024/03/14 05:38:16;;;;;;;10.20;4.82;;;;;;;4.43;100.00;98838.66;4987355;28;20070;-91
2024/03/14 05:40:42;;;;;;;12.25;4.88;;;;;;;5.41;100.00;99012.38;4974735;28;20032;-91
2024/03/14 05:43:08;;;;;;;10.10;5.32;;;;;;;5.41;100.00;99017.66;5001169;28;20041;-91
2024/03/14 05:45:35;;;;;;;9.55;5.00;;;;;;;5.42;100.00;99018.53;5003529;28;20046;-92
2024/03/14 05:48:06;;;;;;;12.38;4.88;;;;;;;5.39;100.00;99019.41;4987800;28;20502;-92
2024/03/14 05:50:35;;;;;;;10.52;5.05;;;;;;;4.72;100.00;98913.22;5004853;28;20084;-92
2024/03/14 05:53:01;;;;;;;9.27;5.38;;;;;;;4.67;100.00;98895.69;5007842;28;20030;-91
2024/03/14 05:55:27;;;;;;;9.93;5.30;;;;;;;5.52;100.00;99022.91;5012631;28;20044;-92
2024/03/14 05:57:53;;;;;;;9.25;5.70;;;;;;;5.59;100.00;99011.44;5008470;28;20034;-91
2024/03/14 06:00:21;;;;;;;10.68;5.22;;;;;;;5.49;100.00;99021.16;5025784;28;20026;-91
2024/03/14 06:02:47;;;;;;;8.30;5.07;;;;;;;4.90;100.00;98912.31;5010089;28;20069;-92
2024/03/14 06:05:14;;;;;;;7.55;5.10;;;;;;;4.97;100.00;98931.63;5026193;28;20134;-93
2024/03/14 06:07:40;;;;;;;10.40;4.72;;;;;;;5.53;100.00;99028.19;5007273;28;20065;-93
2024/03/14 06:10:07;;;;;;;12.10;6.30;;;;;;;4.89;100.00;98913.19;4994261;28;21032;-94
2024/03/14 06:12:33;;;;;;;8.57;4.78;;;;;;;4.86;100.00;98902.66;4993420;28;20041;-92
2024/03/14 06:14:59;;;;;;;11.50;5.80;;;;;;;5.74;100.00;99026.34;4986744;28;20041;-92
2024/03/14 06:17:25;;;;;;;8.05;5.25;;;;;;;5.84;100.00;99032.47;4981939;28;20061;-91
2024/03/14 06:19:51;;;;;;;14.63;5.25;;;;;;;5.31;100.00;98931.53;4990562;28;20038;-91
2024/03/14 06:22:18;;;;;;;6.97;4.65;;;;;;;5.82;100.00;99018.41;4990488;28;20049;-92
2024/03/14 06:24:44;;;;;;;10.65;6.45;;;;;;;5.95;100.00;99026.28;4992987;28;20045;-91
2024/03/14 06:27:13;;;;;;;8.88;5.82;;;;;;;6.02;100.00;99024.50;4990068;28;20025;-92
2024/03/14 06:29:39;;;;;;;10.57;6.07;;;;;;;5.90;100.00;98993.75;4989064;28;20070;-92
2024/03/14 06:32:05;;;;;;;10.35;6.07;;;;;;;6.25;100.00;99032.31;5007208;28;20041;-93
2024/03/14 06:34:31;;;;;;;9.00;5.53;;;;;;;5.63;100.00;98919.97;4991292;28;20033;-92
2024/03/14 06:36:57;;;;;;;9.63;5.55;;;;;;;5.76;100.00;98935.72;4989218;28;20091;-91
2024/03/14 06:39:26;;;;;;;11.73;5.55;;;;;;;6.45;100.00;99036.59;4988971;28;20133;-91
2024/03/14 06:41:52;;;;;;;10.02;4.75;;;;;;;6.51;100.00;99033.94;4995870;28;20091;-91
2024/03/14 06:44:18;;;;;;;10.18;5.30;;;;;;;6.58;100.00;99036.50;4997269;28;20038;-93
2024/03/14 06:46:48;;;;;;;10.75;6.07;;;;;;;6.68;100.00;99045.25;4990752;28;20099;-90
2024/03/14 06:49:14;;;;;;;13.73;6.50;;;;;;;6.81;100.00;99046.06;5010542;28;20042;-92
2024/03/14 06:51:41;;;;;;;9.32;5.60;;;;;;;6.88;100.00;99050.41;4998208;28;20056;-92
2024/03/14 06:54:07;;;;;;;9.60;5.90;;;;;;;7.05;100.00;99041.44;4994833;28;20401;-92
2024/03/14 06:56:35;;;;;;;12.55;5.72;;;;;;;7.15;100.00;99040.47;4992396;28;20049;-93
2024/03/14 06:59:02;;;;;;;12.43;4.78;;;;;;;7.20;100.00;99031.63;5009528;28;20548;-93
2024/03/14 07:01:31;;;;;;;9.80;5.50;;;;;;;7.38;100.00;99045.56;4995859;28;20048;-93
2024/03/14 07:03:58;;;;;;;9.30;4.97;;;;;;;7.47;100.00;99041.94;4991965;28;20049;-91
2024/03/14 07:06:26;;;;;;;11.18;5.30;;;;;;;7.06;100.00;98948.88;4993976;28;20043;-93
2024/03/14 07:08:56;;;;;;;7.95;4.88;;;;;;;7.76;100.00;99047.81;5007888;28;20041;-91
2024/03/14 07:11:23;;;;;;;11.50;5.90;;;;;;;7.87;100.00;99045.03;4997419;28;20052;-91
2024/03/14 07:13:49;;;;;;;10.75;4.93;;;;;;;7.99;100.00;99047.53;4996521;28;20037;-92
2024/03/14 07:16:16;;;;;;;10.77;4.68;;;;;;;7.69;100.00;98960.53;5006384;28;20129;-93
2024/03/14 07:18:42;;;;;;;7.50;4.45;;;;;;;8.25;100.00;99043.66;4994721;28;20046;-92
2024/03/14 07:21:08;;;;;;;9.35;4.80;;;;;;;7.88;100.00;98948.81;4993973;28;20029;-91
2024/03/14 07:23:34;;;;;;;10.43;5.35;;;;;;;7.97;100.00;98948.69;5008222;28;20068;-91
2024/03/14 07:26:02;;;;;;;8.43;4.55;;;;;;;8.16;100.00;98948.44;4989739;28;20030;-90
2024/03/14 07:28:28;;;;;;;8.40;5.03;;;;;;;8.95;100.00;99056.81;5010900;28;20118;-92
2024/03/14 07:30:55;;;;;;;7.97;4.47;;;;;;;8.75;100.00;98989.06;4995596;28;20057;-92
2024/03/14 07:33:21;;;;;;;9.07;4.43;;;;;;;8.93;100.00;99010.88;4996985;28;20042;-92
2024/03/14 07:35:48;;;;;;;9.60;4.78;;;;;;;8.70;100.00;98948.50;4996334;28;20073;-91
2024/03/14 07:38:14;;;;;;;7.57;4.25;;;;;;;9.21;100.00;99014.81;5000729;28;20045;-91
2024/03/14 07:40:43;;;;;;;7.25;3.92;;;;;;;9.01;100.00;98945.31;5013584;28;20030;-91
2024/03/14 07:43:11;;;;;;;7.78;4.35;;;;;;;8.99;100.00;98941.81;5001785;28;20041;-92
2024/03/14 07:45:38;;;;;;;8.38;4.45;;;;;;;9.20;100.00;98946.72;4995830;28;20037;-92
2024/03/14 07:48:04;;;;;;;11.82;4.63;;;;;;;9.39;100.00;98955.22;5009400;28;20068;-92
2024/03/14 07:50:30;;;;;;;8.25;4.30;;;;;;;9.89;100.00;99026.84;5001380;28;20057;-92
2024/03/14 07:52:59;;;;;;;7.40;4.55;;;;;;;9.70;100.00;98972.34;4999425;28;20057;-93
2024/03/14 07:55:25;;;;;;;6.50;4.72;;;;;;;10.38;100.00;99078.09;4993228;28;20038;-92
2024/03/14 07:57:51;;;;;;;8.68;4.30;;;;;;;10.08;100.00;99000.72;4991933;28;20038;-92
2024/03/14 08:00:21;;;;;;;7.63;4.60;;;;;;;9.87;100.00;98951.59;4997167;28;20037;-92
2024/03/14 08:02:54;;;;;;;8.27;4.60;;;;;;;10.33;100.00;99010.88;4987958;28;20049;-93
2024/03/14 08:05:21;;;;;;;7.97;4.55;;;;;;;10.03;100.00;98934.41;4984442;28;20088;-92
2024/03/14 08:07:48;;;;;;;7.32;4.80;;;;;;;10.33;100.00;98974.53;4989608;28;20068;-92
2024/03/14 08:10:14;;;;;;;8.68;4.72;;;;;;;10.44;100.00;98964.53;5010007;28;20069;-93
2024/03/14 08:12:40;;;;;;;8.45;4.30;;;;;;;10.98;100.00;99042.16;4992969;28;20045;-93
2024/03/14 08:15:16;;;;;;;10.60;5.22;;;;;;;10.53;100.00;98954.59;4990471;28;20046;-92
2024/03/14 08:17:44;;;;;;;9.70;4.40;;;;;;;11.43;100.00;99085.41;4995245;28;20033;-93
2024/03/14 08:20:15;;;;;;;6.07;4.18;;;;;;;10.80;100.00;98961.91;4990442;28;20041;-91
2024/03/14 08:22:42;;;;;;;10.65;5.00;;;;;;;10.98;100.00;98997.81;4994292;28;20099;-93
2024/03/14 08:25:15;;;;;;;8.68;4.95;;;;;;;11.66;100.00;99082.13;5008294;28;20041;-92
2024/03/14 08:27:42;;;;;;;7.88;4.82;;;;;;;11.78;100.00;99072.09;4988739;28;20384;-92
2024/03/14 08:30:10;;;;;;;8.23;5.03;;;;;;;11.77;100.00;99068.50;5004063;28;20043;-92
2024/03/14 08:32:36;;;;;;;7.95;4.53;;;;;;;11.47;100.00;99014.28;4986345;28;20061;-92
2024/03/14 08:35:05;;;;;;;14.80;4.40;;;;;;;11.98;100.00;99087.56;5004442;28;20033;-92
2024/03/14 08:37:31;;;;;;;9.52;4.47;;;;;;;11.57;100.00;98994.47;4986888;28;20039;-92
2024/03/14 08:39:58;;;;;;;10.20;4.88;;;;;;;12.19;100.00;99091.38;4987200;28;20057;-92
2024/03/14 08:42:31;;;;;;;8.70;4.60;;;;;;;11.72;100.00;98985.19;4983479;28;20045;-91
2024/03/14 08:44:58;;;;;;;7.05;4.32;;;;;;;11.41;100.00;98959.41;4977951;28;20038;-93
2024/03/14 08:47:24;;;;;;;9.50;4.65;;;;;;;11.30;100.00;98975.69;5002627;28;20041;-91
2024/03/14 08:49:50;;;;;;;9.15;4.38;;;;;;;11.58;100.00;98977.59;4986238;28;20045;-92
2024/03/14 08:52:16;;;;;;;11.23;4.93;;;;;;;12.21;100.00;99086.88;4971816;28;20050;-92
2024/03/14 08:54:45;;;;;;;8.98;4.95;;;;;;;11.58;100.00;99091.22;4995191;28;20033;-91
2024/03/14 08:57:12;;;;;;;5.72;3.80;;;;;;;11.43;100.00;99023.28;4987964;28;20042;-93
2024/03/14 08:59:39;;;;;;;8.20;4.32;;;;;;;12.20;100.00;99086.00;4986846;28;20082;-92
2024/03/14 09:02:09;;;;;;;6.88;4.28;;;;;;;12.06;100.00;99011.78;4966360;28;20513;-92
2024/03/14 09:04:35;;;;;;;6.82;3.75;;;;;;;12.70;100.00;99077.44;4984283;28;20045;-93
2024/03/14 09:07:01;;;;;;;6.15;4.15;;;;;;;12.47;100.00;98996.34;4967184;28;20062;-92
2024/03/14 09:09:31;;;;;;;7.05;4.45;;;;;;;12.81;100.00;99021.94;4972408;28;20034;-92
2024/03/14 09:12:07;;;;;;;9.27;4.30;;;;;;;12.69;100.00;98977.84;5002853;28;20057;-92
2024/03/14 09:14:35;;;;;;;6.63;3.70;;;;;;;12.93;100.00;98969.97;4990838;28;20041;-91
2024/03/14 09:17:04;;;;;;;7.07;4.10;;;;;;;12.99;100.00;98952.84;4988400;28;20037;-92
2024/03/14 09:19:31;;;;;;;8.10;4.40;;;;;;;13.14;100.00;98965.66;5021788;28;20026;-93
2024/03/14 09:21:57;;;;;;;7.25;3.83;;;;;;;13.86;100.00;99067.41;4992225;28;20034;-94
2024/03/14 09:24:23;;;;;;;8.27;4.57;;;;;;;13.97;100.00;99075.03;5008402;28;20021;-93
2024/03/14 09:26:49;;;;;;;7.82;4.70;;;;;;;13.82;100.00;99032.81;4989655;28;20043;-93
2024/03/14 09:29:15;;;;;;;8.00;4.22;;;;;;;13.54;100.00;98967.00;4981730;28;20056;-93
2024/03/14 09:31:44;;;;;;;8.15;3.92;;;;;;;14.30;100.00;99074.72;4987925;28;20044;-92
2024/03/14 09:34:11;;;;;;;9.38;4.15;;;;;;;13.84;100.00;98970.34;4988604;28;20042;-93
2024/03/14 09:36:37;;;;;;;7.10;3.90;;;;;;;14.07;100.00;98985.50;5006256;28;20574;-92
2024/03/14 09:39:13;;;;;;;6.30;4.28;;;;;;;14.38;100.00;99062.78;4991467;28;20038;-92
2024/03/14 09:41:39;;;;;;;7.78;3.58;;;;;;;14.25;100.00;99044.56;5020844;28;20050;-92
2024/03/14 09:44:05;;;;;;;7.95;3.72;;;;;;;14.17;100.00;98989.56;4987983;28;20554;-93
2024/03/14 09:46:31;;;;;;;4.78;2.90;;;;;;;14.00;100.00;98940.34;4989647;28;20041;-93
2024/03/14 09:48:57;;;;;;;7.68;2.80;;;;;;;14.77;100.00;99059.53;4989578;28;20034;-92
2024/03/14 09:51:23;;;;;;;4.72;2.53;;;;;;;14.91;100.00;99066.16;4989737;28;20033;-92
2024/03/14 09:53:49;;;;;;;5.70;3.00;;;;;;;14.48;100.00;98971.47;5008211;28;20030;-91
2024/03/14 09:56:15;;;;;;;7.45;3.47;;;;;;;15.13;100.00;99066.16;4988195;28;20068;-92
2024/03/14 09:58:41;;;;;;;7.97;4.53;;;;;;;15.19;100.00;99063.22;4989643;28;20393;-92
2024/03/14 10:01:09;;;;;;;18.20;9.43;;;;;;;14.46;100.00;99005.44;4993784;28;20041;-92
2024/03/14 10:03:36;;;;;;;26.00;13.43;;;;;;;14.57;100.00;99052.31;4989002;28;20128;-92
2024/03/14 10:06:15;;;;;;;14.23;7.43;;;;;;;14.72;100.00;99052.63;5006106;28;20060;-93
2024/03/14 10:08:45;;;;;;;11.75;5.95;;;;;;;15.07;100.00;99053.91;4993511;28;20066;-93
2024/03/14 10:11:13;;;;;;;10.80;5.10;;;;;;;14.70;100.00;98960.78;4987986;28;20038;-92
2024/03/14 10:13:40;;;;;;;7.00;3.55;;;;;;;15.05;100.00;99053.09;4988787;28;20034;-92
2024/03/14 10:16:06;;;;;;;4.47;2.70;;;;;;;14.66;100.00;98949.34;4988824;28;20037;-92
2024/03/14 10:18:33;;;;;;;5.18;3.55;;;;;;;15.35;100.00;99048.28;4986374;28;20159;-92
2024/03/14 10:21:03;;;;;;;6.22;3.05;;;;;;;15.10;100.00;98999.31;4989372;28;20080;-92
2024/03/14 10:23:29;;;;;;;5.50;3.47;;;;;;;14.79;100.00;98947.91;5000077;28;20064;-93
2024/03/14 10:25:55;;;;;;;6.47;3.05;;;;;;;14.64;100.00;98911.09;5007209;28;20033;-92
2024/03/14 10:28:28;;;;;;;8.05;3.50;;;;;;;14.67;100.00;98972.50;4990265;28;20090;-93
2024/03/14 10:30:57;;;;;;;5.45;3.25;;;;;;;15.28;100.00;99043.22;4997766;28;20087;-91
2024/03/14 10:33:26;;;;;;;8.30;2.90;;;;;;;14.92;100.00;98987.56;4988355;28;20073;-93
2024/03/14 10:35:55;;;;;;;4.60;2.00;;;;;;;14.61;100.00;98942.44;5006224;28;20057;-93
2024/03/14 10:38:23;;;;;;;7.32;2.72;;;;;;;14.67;100.00;98926.13;5007394;28;20042;-93
2024/03/14 10:40:49;;;;;;;5.75;2.90;;;;;;;15.37;100.00;99011.53;5008419;28;20069;-95
2024/03/14 10:43:15;;;;;;;5.22;2.95;;;;;;;15.45;100.00;99023.75;4983467;28;20072;-94
2024/03/14 10:45:42;;;;;;;4.72;2.20;;;;;;;14.98;100.00;98961.41;4985686;28;20041;-96
2024/03/14 10:48:08;;;;;;;4.63;2.35;;;;;;;14.71;100.00;98899.19;4987662;28;20088;-95
2024/03/14 10:50:34;;;;;;;4.72;2.25;;;;;;;15.03;100.00;98936.22;4990530;28;20563;-93
2024/03/14 10:53:00;;;;;;;9.05;2.75;;;;;;;14.86;100.00;98913.72;4984245;28;20121;-95
2024/03/14 10:55:30;;;;;;;6.28;2.03;;;;;;;15.06;100.00;98931.63;4990239;28;20052;-95
2024/03/14 10:57:58;;;;;;;4.60;2.08;;;;;;;14.85;100.00;98893.22;4989995;28;20038;-93
2024/03/14 11:00:24;;;;;;;6.30;2.75;;;;;;;14.92;100.00;98905.44;4986747;28;20037;-94
2024/03/14 11:02:50;;;;;;;3.40;2.17;;;;;;;15.47;100.00;99008.47;4985616;28;20045;-94
2024/03/14 11:05:22;;;;;;;3.47;1.92;;;;;;;15.63;100.00;99022.06;4991223;28;20041;-93
2024/03/14 11:07:51;;;;;;;4.55;2.47;;;;;;;15.19;100.00;98964.97;4994890;28;20045;-93
2024/03/14 11:10:18;;;;;;;5.32;2.50;;;;;;;15.43;100.00;98977.38;4987171;28;20092;-93
2024/03/14 11:12:46;;;;;;;5.63;2.83;;;;;;;15.77;100.00;99025.06;4992240;28;20111;-92
2024/03/14 11:15:13;;;;;;;5.22;3.05;;;;;;;15.19;100.00;98926.59;4987086;28;20495;-92
2024/03/14 11:17:40;;;;;;;6.43;2.85;;;;;;;15.37;100.00;98955.25;5003302;28;20038;-92
2024/03/14 11:20:09;;;;;;;6.90;2.45;;;;;;;15.78;100.00;99010.72;4993158;28;20045;-94
2024/03/14 11:22:37;;;;;;;7.10;3.40;;;;;;;15.52;100.00;99015.38;5002410;28;20241;-93
2024/03/14 11:25:04;;;;;;;7.20;3.50;;;;;;;15.33;100.00;98969.75;4991247;28;20038;-94